.
WxDataArchive / Data Records for 2011-06-21
2011-06-20 June 2011 2011-06-22

Data Records for Tuesday, 21 June 2011

Time	Temp	Chill	HIndex	Humid	Dewpt	 Wind 	HiWind	WindDir	Rain 	Barom 
-----	----	-----	------	-----	-----	------	------	-------	-----	----- 
00:00	70.6	70.6	70.6	87	66.5	0	2	135	0.00	29.812 
00:05	70.6	70.6	70.6	87	66.5	0	1	135	0.00	29.812 
00:10	70.6	70.6	70.6	87	66.5	0	2	135	0.00	29.812 
00:15	70.6	70.6	70.6	87	66.5	0	2	135	0.00	29.813 
00:20	70.6	70.6	70.6	87	66.5	0	2	112	0.00	29.813 
00:25	70.6	70.6	70.6	87	66.5	1	3	112	0.00	29.813 
00:30	70.6	70.6	70.6	87	66.5	1	5	90	0.00	29.811 
00:35	70.4	70.4	70.4	87	66.3	1	3	112	0.00	29.811 
00:40	70.4	70.4	70.4	88	66.7	0	2	112	0.00	29.811 
00:45	70.4	70.4	70.4	88	66.7	1	4	135	0.00	29.808 
00:50	70.4	70.4	70.4	88	66.7	0	2	112	0.00	29.808 
00:55	70.4	70.4	70.4	88	66.7	0	1	112	0.00	29.808 
01:00	70.3	70.3	70.3	88	66.6	0	2	135	0.00	29.813 
01:05	70.3	70.3	70.3	88	66.6	0	2	68	0.00	29.813 
01:10	70.3	70.3	70.3	88	66.6	0	2	135	0.00	29.813 
01:15	70.3	70.3	70.3	88	66.6	0	2	135	0.00	29.809 
01:20	70.1	70.1	70.1	89	66.7	0	2	135	0.00	29.809 
01:25	70.1	70.1	70.1	89	66.7	0	2	135	0.00	29.809 
01:30	69.9	69.9	69.9	89	66.5	0	2	135	0.00	29.805 
01:35	69.9	69.9	69.9	89	66.5	0	1	135	0.00	29.805 
01:40	69.9	69.9	69.9	89	66.5	0	1	135	0.00	29.805 
01:45	69.9	69.9	69.9	89	66.5	0	1	135	0.00	29.801 
01:50	69.8	69.8	69.8	90	66.7	0	1	135	0.00	29.801 
01:55	69.8	69.8	69.8	90	66.7	0	0	---	0.00	29.801 
02:00	69.6	69.6	69.6	90	66.5	0	0	---	0.00	29.802 
02:05	69.6	69.6	69.6	90	66.5	0	1	135	0.00	29.802 
02:10	69.6	69.6	69.6	90	66.5	0	1	135	0.00	29.802 
02:15	69.6	69.6	69.6	91	66.8	0	1	135	0.00	29.797 
02:20	69.6	69.6	69.6	91	66.8	0	1	135	0.00	29.797 
02:25	69.6	69.6	69.6	91	66.8	0	2	135	0.00	29.797 
02:30	69.6	69.6	69.6	91	66.8	0	2	135	0.00	29.793 
02:35	69.6	69.6	69.6	91	66.8	1	3	90	0.00	29.793 
02:40	69.6	69.6	69.6	91	66.8	0	2	90	0.00	29.793 
02:45	69.6	69.6	69.6	92	67.2	0	2	90	0.00	29.787 
02:50	69.6	69.6	69.6	92	67.2	0	2	90	0.00	29.787 
02:55	69.6	69.6	69.6	92	67.2	0	0	---	0.00	29.787 
03:00	69.6	69.6	69.6	92	67.2	0	3	90	0.00	29.786 
03:05	69.6	69.6	69.6	92	67.2	0	1	90	0.00	29.786 
03:10	69.8	69.8	69.8	92	67.4	0	1	90	0.00	29.786 
03:15	69.8	69.8	69.8	92	67.4	0	1	90	0.00	29.781 
03:20	69.9	69.9	69.9	92	67.5	0	2	90	0.00	29.781 
03:25	69.9	69.9	69.9	92	67.5	0	1	90	0.00	29.781 
03:30	70.1	70.1	70.1	92	67.7	0	1	90	0.00	29.787 
03:35	70.1	70.1	70.1	92	67.7	0	1	90	0.00	29.787 
03:40	70.3	70.3	70.3	92	67.9	0	1	90	0.00	29.787 
03:45	70.4	70.4	70.4	92	68.0	0	1	90	0.00	29.780 
03:50	70.4	70.4	70.4	91	67.6	0	3	90	0.00	29.780 
03:55	70.4	70.4	70.4	91	67.6	0	2	90	0.00	29.780 
04:00	70.4	70.4	70.4	91	67.6	0	1	90	0.00	29.779 
04:05	70.4	70.4	70.4	91	67.6	0	1	90	0.00	29.779 
04:10	70.4	70.4	70.4	91	67.6	0	1	90	0.00	29.779 
04:15	70.4	70.4	70.4	91	67.6	0	0	---	0.00	29.780 
04:20	70.4	70.4	70.4	91	67.6	0	0	---	0.00	29.780 
04:25	70.4	70.4	70.4	91	67.6	0	1	90	0.00	29.780 
04:30	70.3	70.3	70.3	91	67.5	0	1	90	0.00	29.779 
04:35	70.3	70.3	70.3	91	67.5	0	2	90	0.00	29.779 
04:40	70.3	70.3	70.3	91	67.5	0	2	90	0.00	29.779 
04:45	70.4	70.4	70.4	91	67.6	0	3	292	0.00	29.775 
04:50	70.3	70.3	70.3	91	67.5	0	1	292	0.00	29.775 
04:55	70.3	70.3	70.3	91	67.5	0	2	90	0.00	29.775 
05:00	70.3	70.3	70.3	91	67.5	0	1	90	0.00	29.774 
05:05	70.3	70.3	70.3	91	67.5	0	2	90	0.00	29.774 
05:10	70.1	70.1	70.1	91	67.3	0	1	90	0.00	29.774 
05:15	70.1	70.1	70.1	91	67.3	0	2	90	0.00	29.775 
05:20	70.1	70.1	70.1	91	67.3	0	3	90	0.00	29.775 
05:25	70.1	70.1	70.1	91	67.3	0	1	90	0.00	29.775 
05:30	70.1	70.1	70.1	91	67.3	0	1	90	0.00	29.775 
05:35	70.1	70.1	70.1	91	67.3	0	1	90	0.00	29.775 
05:40	70.1	70.1	70.1	91	67.3	0	1	90	0.00	29.775 
05:45	70.1	70.1	70.1	91	67.3	0	1	90	0.00	29.776 
05:50	70.1	70.1	70.1	91	67.3	0	2	90	0.00	29.776 
05:55	70.1	70.1	70.1	91	67.3	0	1	90	0.00	29.776 
06:00	69.9	69.9	69.9	91	67.1	0	1	90	0.00	29.777 
06:05	69.9	69.9	69.9	91	67.1	1	4	112	0.00	29.777 
06:10	69.9	69.9	69.9	91	67.1	0	1	112	0.00	29.777 
06:15	69.9	69.9	69.9	91	67.1	0	0	---	0.00	29.779 
06:20	69.8	69.8	69.8	91	67.0	0	0	---	0.00	29.779 
06:25	69.8	69.8	69.8	91	67.0	0	0	---	0.00	29.779 
06:30	69.8	69.8	69.8	91	67.0	0	1	112	0.00	29.785 
06:35	69.6	69.6	69.6	92	67.2	0	1	112	0.00	29.785 
06:40	69.6	69.6	69.6	92	67.2	0	0	---	0.00	29.785 
06:45	69.8	69.8	69.8	92	67.4	0	1	112	0.00	29.789 
06:50	69.8	69.8	69.8	92	67.4	0	2	112	0.00	29.789 
06:55	69.9	69.9	69.9	92	67.5	0	1	135	0.00	29.789 
07:00	70.1	70.1	70.1	92	67.7	0	1	135	0.00	29.789 
07:05	70.3	70.3	70.3	92	67.9	0	2	135	0.00	29.789 
07:10	70.4	70.4	70.4	91	67.6	0	2	135	0.00	29.789 
07:15	70.6	70.6	70.6	91	67.8	0	1	135	0.00	29.786 
07:20	70.8	70.8	70.8	91	68.0	0	1	135	0.00	29.786 
07:25	70.9	70.9	70.9	91	68.1	0	2	135	0.00	29.786 
07:30	71.3	71.3	71.3	90	68.2	0	2	292	0.00	29.791 
07:35	71.6	71.6	71.6	90	68.5	0	2	315	0.00	29.791 
07:40	71.8	71.8	71.8	89	68.4	0	1	315	0.00	29.791 
07:45	72.0	72.0	72.0	88	68.2	0	2	315	0.00	29.789 
07:50	72.3	72.3	72.3	88	68.5	0	1	315	0.00	29.789 
07:55	72.8	72.8	72.8	88	69.0	0	2	315	0.00	29.789 
08:00	73.3	73.3	73.3	86	68.8	0	1	315	0.00	29.786 
08:05	73.9	73.9	73.9	85	69.1	0	1	315	0.00	29.786 
08:10	74.4	74.4	74.4	84	69.2	0	3	68	0.00	29.786 
08:15	74.9	74.9	74.9	82	69.0	0	1	68	0.00	29.775 
08:20	75.3	75.3	75.9	81	69.1	0	1	68	0.00	29.775 
08:25	75.8	75.8	76.6	81	69.5	0	1	68	0.00	29.775 
08:30	76.1	76.1	77.1	80	69.5	0	2	68	0.00	29.773 
08:35	76.0	76.0	77.0	80	69.4	0	2	270	0.00	29.773 
08:40	76.3	76.3	77.4	81	70.0	0	2	270	0.00	29.773 
08:45	76.5	76.5	77.8	80	69.9	0	1	270	0.00	29.776 
08:50	76.3	76.3	77.5	79	69.3	0	2	270	0.00	29.776 
08:55	76.5	76.5	77.8	80	69.9	1	3	270	0.00	29.776 
09:00	76.8	76.8	78.2	80	70.1	0	3	248	0.00	29.777 
09:05	77.4	77.4	79.3	79	70.4	0	3	248	0.00	29.777 
09:10	77.7	77.7	79.7	78	70.3	1	5	292	0.00	29.777 
09:15	77.7	77.7	79.7	77	69.9	1	4	270	0.00	29.778 
09:20	77.9	77.9	80.1	77	70.1	2	4	292	0.00	29.778 
09:25	78.6	78.6	81.2	77	70.8	0	2	270	0.00	29.778 
09:30	79.2	79.2	82.3	77	71.3	0	3	270	0.00	29.773 
09:35	79.9	79.9	83.4	75	71.2	0	1	270	0.00	29.773 
09:40	80.5	80.5	84.4	74	71.4	1	3	270	0.00	29.773 
09:45	80.9	80.9	85.1	74	71.8	0	1	270	0.00	29.775 
09:50	81.1	81.1	85.5	74	72.0	0	2	270	0.00	29.775 
09:55	81.2	81.2	85.3	72	71.3	1	3	270	0.00	29.775 
10:00	81.6	81.6	86.3	73	72.1	1	4	270	0.00	29.773 
10:05	81.6	81.6	86.3	73	72.1	1	5	270	0.00	29.773 
10:10	81.8	81.8	86.1	70	71.0	1	4	270	0.00	29.773 
10:15	81.6	81.6	85.7	70	70.8	2	4	270	0.00	29.775 
10:20	81.8	81.8	86.5	72	71.9	1	4	248	0.00	29.775 
10:25	82.6	82.6	88.4	73	73.0	0	2	248	0.00	29.775 
10:30	83.0	83.0	88.1	69	71.8	1	5	248	0.00	29.775 
10:35	83.0	83.0	88.1	69	71.8	2	5	292	0.00	29.775 
10:40	82.4	82.4	87.0	69	71.2	2	5	270	0.00	29.775 
10:45	81.8	81.8	86.1	70	71.0	2	4	292	0.00	29.785 
10:50	82.2	82.2	87.0	71	71.8	1	4	270	0.00	29.785 
10:55	83.0	83.0	88.4	70	72.2	1	4	68	0.00	29.785 
11:00	83.6	83.6	89.6	70	72.8	1	4	112	0.00	29.780 
11:05	84.3	84.3	90.1	67	72.1	1	3	270	0.00	29.780 
11:10	84.5	84.5	91.2	69	73.2	1	4	292	0.00	29.780 
11:15	84.5	84.5	90.9	68	72.7	1	4	292	0.00	29.771 
11:20	85.1	85.1	92.6	69	73.8	1	4	90	0.00	29.771 
11:25	85.1	85.1	91.8	67	72.9	1	4	112	0.00	29.771 
11:30	85.3	85.3	91.9	66	72.6	1	2	112	0.00	29.774 
11:35	85.5	85.5	92.7	67	73.3	1	3	292	0.00	29.774 
11:40	85.5	85.5	91.6	64	71.9	2	4	292	0.00	29.774 
11:45	85.5	85.5	91.9	65	72.4	1	4	270	0.00	29.770 
11:50	85.7	85.7	92.7	66	73.0	1	4	270	0.00	29.770 
11:55	86.3	86.3	94.1	66	73.6	1	3	248	0.00	29.770 
12:00	86.3	86.3	93.6	65	73.1	1	5	0	0.00	29.771 
12:05	86.3	86.3	93.6	65	73.1	1	6	315	0.00	29.771 
12:10	86.1	86.1	92.8	64	72.5	1	5	248	0.00	29.771 
12:15	85.9	85.9	92.8	65	72.7	1	2	248	0.00	29.770 
12:20	85.7	85.7	92.7	66	73.0	1	2	248	0.00	29.770 
12:25	85.7	85.7	92.0	64	72.1	2	4	270	0.00	29.770 
12:30	85.7	85.7	92.3	65	72.5	1	5	270	0.00	29.767 
12:35	85.9	85.9	92.4	64	72.3	1	3	270	0.00	29.767 
12:40	86.3	86.3	94.5	67	74.0	1	4	270	0.00	29.767 
12:45	86.7	86.7	94.5	65	73.5	1	5	248	0.00	29.766 
12:50	87.2	87.2	96.6	67	74.9	0	3	248	0.00	29.766 
12:55	87.6	87.6	96.6	65	74.3	0	2	248	0.00	29.766 
13:00	87.6	87.6	95.2	62	72.9	1	3	248	0.00	29.763 
13:05	87.8	87.8	95.2	61	72.6	1	3	248	0.00	29.763 
13:10	88.0	88.0	97.1	64	74.3	1	5	0	0.00	29.763 
13:15	88.2	88.2	97.0	63	74.0	1	3	270	0.00	29.759 
13:20	88.6	88.6	98.5	64	74.8	1	3	270	0.00	29.759 
13:25	88.2	88.2	95.6	60	72.5	1	3	270	0.00	29.759 
13:30	88.2	88.2	96.5	62	73.5	1	3	270	0.00	29.749 
13:35	88.2	88.2	97.5	64	74.4	1	4	315	0.00	29.749 
13:40	88.4	88.4	97.0	62	73.7	1	4	112	0.00	29.749 
13:45	88.8	88.8	97.4	61	73.6	1	4	90	0.00	29.746 
13:50	89.0	89.0	98.4	62	74.3	1	3	90	0.00	29.746 
13:55	88.8	88.8	97.4	61	73.6	1	6	90	0.00	29.746 
14:00	88.6	88.6	97.0	61	73.4	1	4	90	0.00	29.748 
14:05	88.8	88.8	96.9	60	73.1	1	4	135	0.00	29.748 
14:10	89.0	89.0	98.9	63	74.7	1	3	135	0.00	29.748 
14:15	89.3	89.3	98.0	60	73.6	1	5	135	0.00	29.745 
14:20	89.5	89.5	98.5	60	73.7	1	3	315	0.00	29.745 
14:25	89.3	89.3	98.0	60	73.6	2	3	292	0.00	29.745 
14:30	89.3	89.3	98.0	60	73.6	0	3	22	0.00	29.734 
14:35	89.7	89.7	100.1	62	74.9	1	4	68	0.00	29.734 
14:40	89.9	89.9	98.9	59	73.6	1	3	68	0.00	29.734 
14:45	90.1	90.1	99.4	59	73.8	1	4	248	0.00	29.727 
14:50	90.1	90.1	99.4	59	73.8	2	4	90	0.00	29.727 
14:55	90.1	90.1	99.4	59	73.8	1	4	135	0.00	29.727 
15:00	90.1	90.1	98.8	58	73.3	1	4	90	0.00	29.714 
15:05	90.3	90.3	99.8	59	74.0	2	4	90	0.00	29.714 
15:10	90.1	90.1	98.8	58	73.3	2	5	90	0.00	29.714 
15:15	90.3	90.3	99.8	59	74.0	1	4	45	0.00	29.715 
15:20	90.5	90.5	100.3	59	74.2	1	4	90	0.00	29.715 
15:25	90.7	90.7	99.6	57	73.3	2	6	90	0.00	29.715 
15:30	90.5	90.5	99.7	58	73.7	2	4	90	0.00	29.714 
15:35	90.1	90.1	98.8	58	73.3	2	7	90	0.00	29.714 
15:40	89.9	89.9	97.8	57	72.6	2	5	90	0.00	29.714 
15:45	89.7	89.7	97.9	58	72.9	2	5	112	0.00	29.709 
15:50	90.1	90.1	99.4	59	73.8	1	6	90	0.00	29.709 
15:55	90.3	90.3	99.3	58	73.5	0	1	90	0.00	29.709 
16:00	90.7	90.7	99.6	57	73.3	1	3	90	0.00	29.707 
16:05	91.0	91.0	100.9	58	74.1	2	5	112	0.00	29.707 
16:10	91.2	91.2	100.8	57	73.8	2	5	90	0.00	29.707 
16:15	91.2	91.2	100.2	56	73.3	1	3	90	0.00	29.710 
16:20	91.0	91.0	100.3	57	73.6	1	4	90	0.00	29.710 
16:25	90.5	90.5	99.2	57	73.1	0	2	90	0.00	29.710 
16:30	90.3	90.3	99.3	58	73.5	1	3	90	0.00	29.699 
16:35	90.5	90.5	99.7	58	73.7	1	5	112	0.00	29.699 
16:40	90.3	90.3	99.8	59	74.0	1	5	112	0.00	29.699 
16:45	90.3	90.3	99.3	58	73.5	1	5	68	0.00	29.698 
16:50	90.3	90.3	98.7	57	73.0	2	5	68	0.00	29.698 
16:55	90.5	90.5	99.7	58	73.7	1	4	90	0.00	29.698 
17:00	90.5	90.5	99.7	58	73.7	1	3	0	0.00	29.694 
17:05	89.9	89.9	97.8	57	72.6	2	6	90	0.00	29.694 
17:10	89.5	89.5	97.4	58	72.7	1	4	22	0.00	29.694 
17:15	88.8	88.8	96.4	59	72.6	2	7	90	0.00	29.687 
17:20	88.2	88.2	95.6	60	72.5	1	4	90	0.00	29.687 
17:25	87.6	87.6	95.2	62	72.9	1	6	292	0.00	29.687 
17:30	87.2	87.2	94.3	62	72.6	1	3	68	0.00	29.686 
17:35	87.2	87.2	94.3	62	72.6	1	5	0	0.00	29.686 
17:40	87.6	87.6	94.7	61	72.5	2	7	90	0.00	29.686 
17:45	87.8	87.8	95.2	61	72.6	1	5	112	0.00	29.685 
17:50	87.4	87.4	94.8	62	72.7	1	5	270	0.00	29.685 
17:55	87.2	87.2	94.3	62	72.6	1	3	90	0.00	29.685 
18:00	87.0	87.0	94.3	63	72.8	1	4	90	0.00	29.672 
18:05	87.0	87.0	94.8	64	73.3	1	6	112	0.00	29.672 
18:10	86.7	86.7	93.3	62	72.1	1	4	112	0.00	29.672 
18:15	86.3	86.3	92.8	63	72.2	1	6	68	0.00	29.652 
18:20	86.1	86.1	91.7	61	71.0	1	6	292	0.00	29.652 
18:25	86.1	86.1	92.0	62	71.5	1	4	338	0.00	29.652 
18:30	85.9	85.9	91.6	62	71.3	1	4	112	0.00	29.652 
18:35	85.9	85.9	91.6	62	71.3	2	7	90	0.00	29.652 
18:40	85.9	85.9	92.0	63	71.8	1	3	45	0.00	29.652 
18:45	85.7	85.7	91.6	63	71.6	1	6	45	0.00	29.650 
18:50	85.7	85.7	91.2	62	71.1	1	4	68	0.00	29.650 
18:55	85.5	85.5	90.2	60	70.0	2	5	112	0.00	29.650 
19:00	84.5	84.5	87.3	56	67.0	2	9	45	0.00	29.659 
19:05	83.8	83.8	86.7	58	67.4	3	10	270	0.00	29.659 
19:10	83.0	83.0	85.1	56	65.7	1	10	270	0.00	29.659 
19:15	82.4	82.4	84.4	57	65.6	1	5	248	0.00	29.672 
19:20	81.8	81.8	83.6	57	65.0	1	4	112	0.00	29.672 
19:25	81.6	81.6	83.5	58	65.4	1	6	248	0.00	29.672 
19:30	81.4	81.4	83.6	60	66.2	1	4	270	0.00	29.681 
19:35	81.4	81.4	83.8	61	66.6	1	3	22	0.00	29.681 
19:40	81.4	81.4	84.1	63	67.6	1	6	248	0.00	29.681 
19:45	81.4	81.4	84.4	65	68.5	1	5	22	0.00	29.691 
19:50	81.4	81.4	84.8	67	69.4	3	16	270	0.00	29.691 
19:55	81.4	81.4	85.0	68	69.8	3	11	270	0.00	29.691 
20:00	81.2	81.2	84.8	69	70.0	3	7	270	0.00	29.689 
20:05	81.1	81.1	84.6	69	69.9	3	8	248	0.00	29.689 
20:10	80.7	80.7	84.3	71	70.4	3	11	270	0.00	29.689 
20:15	80.3	80.3	83.7	72	70.4	2	6	248	0.00	29.694 
20:20	79.8	79.8	83.0	73	70.4	2	6	270	0.00	29.694 
20:25	79.6	79.6	82.6	73	70.2	2	5	270	0.00	29.694 
20:30	79.2	79.2	82.0	73	69.8	1	4	270	0.00	29.704 
20:35	79.0	79.0	81.6	73	69.6	2	12	292	0.00	29.704 
20:40	78.8	78.8	81.3	73	69.4	1	5	270	0.00	29.704 
20:45	78.6	78.6	81.0	72	68.8	1	6	270	0.00	29.703 
20:50	78.5	78.5	80.7	70	67.9	2	6	270	0.00	29.703 
20:55	78.6	78.6	80.8	69	67.6	1	4	270	0.00	29.703 
21:00	78.5	78.5	80.5	67	66.6	1	7	270	0.00	29.691 
21:05	78.3	78.3	80.2	66	66.0	1	4	90	0.00	29.691 
21:10	78.1	78.1	80.0	66	65.8	1	3	68	0.00	29.691 
21:15	78.1	78.1	80.0	66	65.8	1	5	270	0.00	29.687 
21:20	77.9	77.9	79.8	67	66.0	1	4	292	0.00	29.687 
21:25	77.6	77.6	79.5	67	65.8	3	9	248	0.00	29.687 
21:30	77.2	77.2	79.0	68	65.8	2	7	248	0.00	29.686 
21:35	77.0	77.0	78.8	69	66.0	2	6	292	0.00	29.686 
21:40	76.7	76.7	78.4	69	65.7	1	6	270	0.00	29.686 
21:45	76.5	76.5	78.2	70	66.0	2	4	270	0.00	29.680 
21:50	76.3	76.3	77.9	71	66.2	2	4	248	0.00	29.680 
21:55	76.1	76.1	77.7	72	66.4	1	3	292	0.00	29.680 
22:00	75.8	75.8	77.3	73	66.5	1	5	292	0.00	29.681 
22:05	75.6	75.6	77.0	74	66.7	0	3	0	0.00	29.681 
22:10	75.4	75.4	76.7	74	66.5	0	1	0	0.00	29.681 
22:15	75.3	75.3	76.5	75	66.8	0	2	0	0.00	29.688 
22:20	75.1	75.1	76.2	76	67.0	1	3	270	0.00	29.688 
22:25	74.9	74.9	74.9	76	66.8	0	2	270	0.00	29.688 
22:30	74.9	74.9	74.9	77	67.2	0	4	225	0.00	29.679 
22:35	74.7	74.7	74.7	77	67.0	0	1	225	0.00	29.679 
22:40	74.6	74.6	74.6	78	67.3	0	1	225	0.00	29.679 
22:45	74.4	74.4	74.4	78	67.1	0	2	225	0.00	29.676 
22:50	74.2	74.2	74.2	79	67.3	0	2	22	0.00	29.676 
22:55	74.0	74.0	74.0	79	67.1	0	2	68	0.00	29.676 
23:00	73.9	73.9	73.9	79	67.0	0	2	68	0.00	29.679 
23:05	73.7	73.7	73.7	80	67.1	0	2	22	0.00	29.679 
23:10	73.5	73.5	73.5	80	66.9	0	1	225	0.00	29.679 
23:15	73.5	73.5	73.5	81	67.3	0	2	225	0.00	29.671 
23:20	73.3	73.3	73.3	81	67.1	0	1	225	0.00	29.671 
23:25	73.3	73.3	73.3	81	67.1	0	4	292	0.00	29.671 
23:30	73.2	73.2	73.2	81	67.0	0	4	248	0.00	29.671 
23:35	73.2	73.2	73.2	82	67.4	0	1	248	0.00	29.671 
23:40	73.0	73.0	73.0	82	67.2	0	2	315	0.00	29.671 
23:45	73.0	73.0	73.0	82	67.2	0	2	315	0.00	29.688 
23:50	72.8	72.8	72.8	82	67.0	0	2	315	0.00	29.688 
23:55	72.8	72.8	72.8	83	67.3	0	1	135	0.00	29.688 

CoCoRaHS
IN-AL-39
A2 Web Hosting
Creative Commons License
GoDaddy
search engine by freefind advanced

loaded 2018-11-15 14:32:22 • last modified 2010-11-18 10:43:29
Privacy PolicyDisclaimer
• wx.awcolley.com is powered by PmWiki v.2002016 •
• all content (unless otherwise noted) © 2018 A W Colley